sensor_id;sensor_type;location;lat;lon;timestamp;temperature;humidity
25248;DHT22;13191;47.472;11.214;2023-07-31T00:00:27;14.90;99.90
25248;DHT22;13191;47.472;11.214;2023-07-31T00:02:52;14.90;99.90
25248;DHT22;13191;47.472;11.214;2023-07-31T00:05:18;14.80;99.90
25248;DHT22;13191;47.472;11.214;2023-07-31T00:07:44;14.70;99.90
25248;DHT22;13191;47.472;11.214;2023-07-31T00:10:09;14.60;99.90
25248;DHT22;13191;47.472;11.214;2023-07-31T00:12:35;14.60;99.90
25248;DHT22;13191;47.472;11.214;2023-07-31T00:15:01;14.60;99.90
25248;DHT22;13191;47.472;11.214;2023-07-31T00:17:28;14.60;99.90
25248;DHT22;13191;47.472;11.214;2023-07-31T00:19:53;14.40;99.90
25248;DHT22;13191;47.472;11.214;2023-07-31T00:22:19;14.40;99.90
25248;DHT22;13191;47.472;11.214;2023-07-31T00:24:44;14.40;99.90
25248;DHT22;13191;47.472;11.214;2023-07-31T00:27:10;14.30;99.90
25248;DHT22;13191;47.472;11.214;2023-07-31T00:29:35;14.30;99.90
25248;DHT22;13191;47.472;11.214;2023-07-31T00:32:01;14.30;99.90
25248;DHT22;13191;47.472;11.214;2023-07-31T00:34:27;14.10;99.90
25248;DHT22;13191;47.472;11.214;2023-07-31T00:36:52;13.80;99.90
25248;DHT22;13191;47.472;11.214;2023-07-31T00:39:18;13.70;99.90
25248;DHT22;13191;47.472;11.214;2023-07-31T00:41:43;13.80;99.90
25248;DHT22;13191;47.472;11.214;2023-07-31T00:44:09;13.80;99.90
25248;DHT22;13191;47.472;11.214;2023-07-31T00:46:34;13.80;99.90
25248;DHT22;13191;47.472;11.214;2023-07-31T00:49:00;13.80;99.90
25248;DHT22;13191;47.472;11.214;2023-07-31T00:51:26;13.70;99.90
25248;DHT22;13191;47.472;11.214;2023-07-31T00:53:52;13.70;99.90
25248;DHT22;13191;47.472;11.214;2023-07-31T00:56:19;13.60;99.90
25248;DHT22;13191;47.472;11.214;2023-07-31T00:58:45;13.50;99.90
25248;DHT22;13191;47.472;11.214;2023-07-31T01:01:10;13.50;99.90
25248;DHT22;13191;47.472;11.214;2023-07-31T01:03:36;13.50;99.90
25248;DHT22;13191;47.472;11.214;2023-07-31T01:09:03;13.50;99.90
25248;DHT22;13191;47.472;11.214;2023-07-31T01:11:45;13.40;99.90
25248;DHT22;13191;47.472;11.214;2023-07-31T01:14:12;13.20;99.90
25248;DHT22;13191;47.472;11.214;2023-07-31T01:16:37;13.10;99.90
25248;DHT22;13191;47.472;11.214;2023-07-31T01:19:03;13.10;99.90
25248;DHT22;13191;47.472;11.214;2023-07-31T01:24:20;13.20;99.90
25248;DHT22;13191;47.472;11.214;2023-07-31T01:26:53;13.10;99.90
25248;DHT22;13191;47.472;11.214;2023-07-31T01:29:35;13.00;99.90
25248;DHT22;13191;47.472;11.214;2023-07-31T01:32:03;13.00;99.90
25248;DHT22;13191;47.472;11.214;2023-07-31T01:34:30;12.90;99.90
25248;DHT22;13191;47.472;11.214;2023-07-31T01:36:56;12.90;99.90
25248;DHT22;13191;47.472;11.214;2023-07-31T01:39:23;12.90;99.90
25248;DHT22;13191;47.472;11.214;2023-07-31T01:41:49;12.90;99.90
25248;DHT22;13191;47.472;11.214;2023-07-31T01:44:15;12.90;99.90
25248;DHT22;13191;47.472;11.214;2023-07-31T01:46:40;12.90;99.90
25248;DHT22;13191;47.472;11.214;2023-07-31T01:49:06;12.90;99.90
25248;DHT22;13191;47.472;11.214;2023-07-31T01:51:31;12.90;99.90
25248;DHT22;13191;47.472;11.214;2023-07-31T01:54:00;12.80;99.90
25248;DHT22;13191;47.472;11.214;2023-07-31T01:56:25;12.80;99.90
25248;DHT22;13191;47.472;11.214;2023-07-31T01:58:51;12.80;99.90
25248;DHT22;13191;47.472;11.214;2023-07-31T02:01:16;12.70;99.90
25248;DHT22;13191;47.472;11.214;2023-07-31T02:03:42;12.60;99.90
25248;DHT22;13191;47.472;11.214;2023-07-31T02:06:07;12.60;99.90
25248;DHT22;13191;47.472;11.214;2023-07-31T02:08:33;12.60;99.90
25248;DHT22;13191;47.472;11.214;2023-07-31T02:10:59;12.60;99.90
25248;DHT22;13191;47.472;11.214;2023-07-31T02:13:25;12.60;99.90
25248;DHT22;13191;47.472;11.214;2023-07-31T02:15:50;12.60;99.90
25248;DHT22;13191;47.472;11.214;2023-07-31T02:18:17;12.60;99.90
25248;DHT22;13191;47.472;11.214;2023-07-31T02:20:42;12.70;99.90
25248;DHT22;13191;47.472;11.214;2023-07-31T02:23:08;12.70;99.90
25248;DHT22;13191;47.472;11.214;2023-07-31T02:25:34;12.60;99.90
25248;DHT22;13191;47.472;11.214;2023-07-31T02:27:59;12.50;99.90
25248;DHT22;13191;47.472;11.214;2023-07-31T02:30:25;12.40;99.90
25248;DHT22;13191;47.472;11.214;2023-07-31T02:32:50;12.40;99.90
25248;DHT22;13191;47.472;11.214;2023-07-31T02:35:16;12.30;99.90
25248;DHT22;13191;47.472;11.214;2023-07-31T02:37:42;12.20;99.90
25248;DHT22;13191;47.472;11.214;2023-07-31T02:40:08;12.20;99.90
25248;DHT22;13191;47.472;11.214;2023-07-31T02:42:34;12.30;99.90
25248;DHT22;13191;47.472;11.214;2023-07-31T02:44:59;12.20;99.90
25248;DHT22;13191;47.472;11.214;2023-07-31T02:47:25;12.20;99.90
25248;DHT22;13191;47.472;11.214;2023-07-31T02:49:50;12.10;99.90
25248;DHT22;13191;47.472;11.214;2023-07-31T02:52:16;12.10;99.90
25248;DHT22;13191;47.472;11.214;2023-07-31T02:54:41;12.00;99.90
25248;DHT22;13191;47.472;11.214;2023-07-31T02:57:07;12.00;99.90
25248;DHT22;13191;47.472;11.214;2023-07-31T02:59:33;12.00;99.90
25248;DHT22;13191;47.472;11.214;2023-07-31T03:01:58;12.00;99.90
25248;DHT22;13191;47.472;11.214;2023-07-31T03:04:24;12.00;99.90
25248;DHT22;13191;47.472;11.214;2023-07-31T03:06:49;12.00;99.90
25248;DHT22;13191;47.472;11.214;2023-07-31T03:09:15;12.10;99.90
25248;DHT22;13191;47.472;11.214;2023-07-31T03:11:41;12.00;99.90
25248;DHT22;13191;47.472;11.214;2023-07-31T03:14:06;12.00;99.90
25248;DHT22;13191;47.472;11.214;2023-07-31T03:16:32;11.90;99.90
25248;DHT22;13191;47.472;11.214;2023-07-31T03:18:57;12.00;99.90
25248;DHT22;13191;47.472;11.214;2023-07-31T03:21:23;12.00;99.90
25248;DHT22;13191;47.472;11.214;2023-07-31T03:23:49;12.00;99.90
25248;DHT22;13191;47.472;11.214;2023-07-31T03:26:14;11.90;99.90
25248;DHT22;13191;47.472;11.214;2023-07-31T03:28:40;12.00;99.90
25248;DHT22;13191;47.472;11.214;2023-07-31T03:31:05;12.00;99.90
25248;DHT22;13191;47.472;11.214;2023-07-31T03:33:31;11.90;99.90
25248;DHT22;13191;47.472;11.214;2023-07-31T03:35:57;11.90;99.90
25248;DHT22;13191;47.472;11.214;2023-07-31T03:38:22;12.00;99.90
25248;DHT22;13191;47.472;11.214;2023-07-31T03:40:48;12.00;99.90
25248;DHT22;13191;47.472;11.214;2023-07-31T03:43:14;12.00;99.90
25248;DHT22;13191;47.472;11.214;2023-07-31T03:45:40;12.00;99.90
25248;DHT22;13191;47.472;11.214;2023-07-31T03:48:06;12.10;99.90
25248;DHT22;13191;47.472;11.214;2023-07-31T03:50:33;12.10;99.90
25248;DHT22;13191;47.472;11.214;2023-07-31T03:52:58;12.10;99.90
25248;DHT22;13191;47.472;11.214;2023-07-31T03:55:24;12.10;99.90
25248;DHT22;13191;47.472;11.214;2023-07-31T03:57:49;12.10;99.90
25248;DHT22;13191;47.472;11.214;2023-07-31T04:00:15;12.10;99.90
25248;DHT22;13191;47.472;11.214;2023-07-31T04:02:40;12.00;99.90
25248;DHT22;13191;47.472;11.214;2023-07-31T04:05:07;12.00;99.90
25248;DHT22;13191;47.472;11.214;2023-07-31T04:07:32;12.00;99.90
25248;DHT22;13191;47.472;11.214;2023-07-31T04:09:59;11.90;99.90
25248;DHT22;13191;47.472;11.214;2023-07-31T04:12:25;11.80;99.90
25248;DHT22;13191;47.472;11.214;2023-07-31T04:14:50;11.90;99.90
25248;DHT22;13191;47.472;11.214;2023-07-31T04:17:17;11.90;99.90
25248;DHT22;13191;47.472;11.214;2023-07-31T04:19:43;11.80;99.90
25248;DHT22;13191;47.472;11.214;2023-07-31T04:22:08;11.80;99.90
25248;DHT22;13191;47.472;11.214;2023-07-31T04:24:34;11.80;99.90
25248;DHT22;13191;47.472;11.214;2023-07-31T04:26:59;11.70;99.90
25248;DHT22;13191;47.472;11.214;2023-07-31T04:29:25;11.60;99.90
25248;DHT22;13191;47.472;11.214;2023-07-31T04:31:51;11.60;99.90
25248;DHT22;13191;47.472;11.214;2023-07-31T04:34:16;11.70;99.90
25248;DHT22;13191;47.472;11.214;2023-07-31T04:36:42;11.70;99.90
25248;DHT22;13191;47.472;11.214;2023-07-31T04:39:07;11.70;99.90
25248;DHT22;13191;47.472;11.214;2023-07-31T04:41:33;11.70;99.90
25248;DHT22;13191;47.472;11.214;2023-07-31T04:43:58;11.70;99.90
25248;DHT22;13191;47.472;11.214;2023-07-31T04:46:24;11.70;99.90
25248;DHT22;13191;47.472;11.214;2023-07-31T04:48:50;11.70;99.90
25248;DHT22;13191;47.472;11.214;2023-07-31T04:51:15;11.70;99.90
25248;DHT22;13191;47.472;11.214;2023-07-31T04:53:41;11.70;99.90
25248;DHT22;13191;47.472;11.214;2023-07-31T04:56:06;11.70;99.90
25248;DHT22;13191;47.472;11.214;2023-07-31T04:58:32;11.70;99.90
25248;DHT22;13191;47.472;11.214;2023-07-31T05:00:57;11.70;99.90
25248;DHT22;13191;47.472;11.214;2023-07-31T05:03:23;11.70;99.90
25248;DHT22;13191;47.472;11.214;2023-07-31T05:05:49;11.70;99.90
25248;DHT22;13191;47.472;11.214;2023-07-31T05:08:14;11.70;99.90
25248;DHT22;13191;47.472;11.214;2023-07-31T05:10:43;11.80;99.90
25248;DHT22;13191;47.472;11.214;2023-07-31T05:13:08;11.80;99.90
25248;DHT22;13191;47.472;11.214;2023-07-31T05:15:34;11.90;99.90
25248;DHT22;13191;47.472;11.214;2023-07-31T05:17:59;11.90;99.90
25248;DHT22;13191;47.472;11.214;2023-07-31T05:20:25;12.00;99.90
25248;DHT22;13191;47.472;11.214;2023-07-31T05:22:51;12.00;99.90
25248;DHT22;13191;47.472;11.214;2023-07-31T05:25:16;12.10;99.90
25248;DHT22;13191;47.472;11.214;2023-07-31T05:27:42;12.20;99.90
25248;DHT22;13191;47.472;11.214;2023-07-31T05:30:08;12.20;99.90
25248;DHT22;13191;47.472;11.214;2023-07-31T05:32:34;12.30;99.90
25248;DHT22;13191;47.472;11.214;2023-07-31T05:34:59;12.40;99.90
25248;DHT22;13191;47.472;11.214;2023-07-31T05:37:25;12.40;99.90
25248;DHT22;13191;47.472;11.214;2023-07-31T05:39:50;12.50;99.90
25248;DHT22;13191;47.472;11.214;2023-07-31T05:42:17;12.60;99.90
25248;DHT22;13191;47.472;11.214;2023-07-31T05:44:42;12.60;99.90
25248;DHT22;13191;47.472;11.214;2023-07-31T05:47:09;12.60;99.90
25248;DHT22;13191;47.472;11.214;2023-07-31T05:49:34;12.70;99.90
25248;DHT22;13191;47.472;11.214;2023-07-31T05:52:00;12.80;99.90
25248;DHT22;13191;47.472;11.214;2023-07-31T05:54:25;12.80;99.90
25248;DHT22;13191;47.472;11.214;2023-07-31T05:56:51;12.90;99.90
25248;DHT22;13191;47.472;11.214;2023-07-31T05:59:16;12.90;99.90
25248;DHT22;13191;47.472;11.214;2023-07-31T06:01:42;13.00;99.90
25248;DHT22;13191;47.472;11.214;2023-07-31T06:04:07;13.10;99.90
25248;DHT22;13191;47.472;11.214;2023-07-31T06:06:33;13.20;99.90
25248;DHT22;13191;47.472;11.214;2023-07-31T06:08:59;13.30;99.90
25248;DHT22;13191;47.472;11.214;2023-07-31T06:11:24;13.40;99.90
25248;DHT22;13191;47.472;11.214;2023-07-31T06:13:50;13.40;99.90
25248;DHT22;13191;47.472;11.214;2023-07-31T06:16:16;13.50;99.90
25248;DHT22;13191;47.472;11.214;2023-07-31T06:18:42;13.60;99.90
25248;DHT22;13191;47.472;11.214;2023-07-31T06:21:09;13.70;99.90
25248;DHT22;13191;47.472;11.214;2023-07-31T06:23:35;13.70;99.90
25248;DHT22;13191;47.472;11.214;2023-07-31T06:26:00;13.80;99.90
25248;DHT22;13191;47.472;11.214;2023-07-31T06:28:31;13.80;99.90
25248;DHT22;13191;47.472;11.214;2023-07-31T06:30:57;13.90;99.90
25248;DHT22;13191;47.472;11.214;2023-07-31T06:33:23;14.00;99.90
25248;DHT22;13191;47.472;11.214;2023-07-31T06:35:49;14.00;99.90
25248;DHT22;13191;47.472;11.214;2023-07-31T06:38:14;14.10;99.90
25248;DHT22;13191;47.472;11.214;2023-07-31T06:40:40;14.20;99.90
25248;DHT22;13191;47.472;11.214;2023-07-31T06:43:06;14.40;99.90
25248;DHT22;13191;47.472;11.214;2023-07-31T06:45:35;14.50;99.90
25248;DHT22;13191;47.472;11.214;2023-07-31T06:48:01;14.70;99.90
25248;DHT22;13191;47.472;11.214;2023-07-31T06:50:28;14.80;99.90
25248;DHT22;13191;47.472;11.214;2023-07-31T06:52:54;14.90;99.90
25248;DHT22;13191;47.472;11.214;2023-07-31T06:55:20;14.90;99.90
25248;DHT22;13191;47.472;11.214;2023-07-31T06:57:51;15.00;99.90
25248;DHT22;13191;47.472;11.214;2023-07-31T07:00:19;15.10;99.90
25248;DHT22;13191;47.472;11.214;2023-07-31T07:02:44;15.20;99.90
25248;DHT22;13191;47.472;11.214;2023-07-31T07:05:10;15.20;99.90
25248;DHT22;13191;47.472;11.214;2023-07-31T07:07:36;15.20;99.90
25248;DHT22;13191;47.472;11.214;2023-07-31T07:10:02;15.30;99.90
25248;DHT22;13191;47.472;11.214;2023-07-31T07:12:30;15.30;99.90
25248;DHT22;13191;47.472;11.214;2023-07-31T07:14:56;15.40;99.90
25248;DHT22;13191;47.472;11.214;2023-07-31T07:17:23;15.40;99.90
25248;DHT22;13191;47.472;11.214;2023-07-31T07:19:48;15.50;99.90
25248;DHT22;13191;47.472;11.214;2023-07-31T07:22:14;15.60;99.90
25248;DHT22;13191;47.472;11.214;2023-07-31T07:24:40;15.70;99.90
25248;DHT22;13191;47.472;11.214;2023-07-31T07:27:06;15.80;99.90
25248;DHT22;13191;47.472;11.214;2023-07-31T07:29:31;15.90;99.90
25248;DHT22;13191;47.472;11.214;2023-07-31T07:31:57;16.00;99.90
25248;DHT22;13191;47.472;11.214;2023-07-31T07:34:25;16.00;99.90
25248;DHT22;13191;47.472;11.214;2023-07-31T07:36:51;16.10;99.90
25248;DHT22;13191;47.472;11.214;2023-07-31T07:39:17;16.20;99.90
25248;DHT22;13191;47.472;11.214;2023-07-31T07:41:42;16.20;99.90
25248;DHT22;13191;47.472;11.214;2023-07-31T07:44:08;16.30;99.90
25248;DHT22;13191;47.472;11.214;2023-07-31T07:46:33;16.30;99.90
25248;DHT22;13191;47.472;11.214;2023-07-31T07:48:59;16.30;99.90
25248;DHT22;13191;47.472;11.214;2023-07-31T07:51:25;16.30;99.90
25248;DHT22;13191;47.472;11.214;2023-07-31T07:53:50;16.30;99.90
25248;DHT22;13191;47.472;11.214;2023-07-31T07:56:16;16.40;99.90
25248;DHT22;13191;47.472;11.214;2023-07-31T07:58:41;16.40;99.90
25248;DHT22;13191;47.472;11.214;2023-07-31T08:01:07;16.50;99.90
25248;DHT22;13191;47.472;11.214;2023-07-31T08:03:32;16.50;99.90
25248;DHT22;13191;47.472;11.214;2023-07-31T08:06:01;16.70;99.90
25248;DHT22;13191;47.472;11.214;2023-07-31T08:08:27;16.70;99.90
25248;DHT22;13191;47.472;11.214;2023-07-31T08:10:53;16.80;99.90
25248;DHT22;13191;47.472;11.214;2023-07-31T08:13:19;16.90;99.90
25248;DHT22;13191;47.472;11.214;2023-07-31T08:20:37;16.90;99.90
25248;DHT22;13191;47.472;11.214;2023-07-31T08:23:03;17.00;99.90
25248;DHT22;13191;47.472;11.214;2023-07-31T08:25:29;17.00;99.90
25248;DHT22;13191;47.472;11.214;2023-07-31T08:27:54;17.10;99.90
25248;DHT22;13191;47.472;11.214;2023-07-31T08:30:20;17.10;99.90
25248;DHT22;13191;47.472;11.214;2023-07-31T08:32:46;17.20;99.90
25248;DHT22;13191;47.472;11.214;2023-07-31T08:35:12;17.20;99.90
25248;DHT22;13191;47.472;11.214;2023-07-31T08:37:38;17.20;99.90
25248;DHT22;13191;47.472;11.214;2023-07-31T08:40:04;17.20;99.90
25248;DHT22;13191;47.472;11.214;2023-07-31T08:42:31;17.30;99.90
25248;DHT22;13191;47.472;11.214;2023-07-31T08:44:57;17.30;99.90
25248;DHT22;13191;47.472;11.214;2023-07-31T08:47:23;17.40;99.90
25248;DHT22;13191;47.472;11.214;2023-07-31T08:49:50;17.50;99.90
25248;DHT22;13191;47.472;11.214;2023-07-31T08:52:16;17.60;99.90
25248;DHT22;13191;47.472;11.214;2023-07-31T08:54:42;17.70;99.90
25248;DHT22;13191;47.472;11.214;2023-07-31T08:57:07;17.70;99.90
25248;DHT22;13191;47.472;11.214;2023-07-31T08:59:35;17.80;99.90
25248;DHT22;13191;47.472;11.214;2023-07-31T09:02:05;17.80;99.90
25248;DHT22;13191;47.472;11.214;2023-07-31T09:04:32;17.90;99.90
25248;DHT22;13191;47.472;11.214;2023-07-31T09:07:01;17.90;99.90
25248;DHT22;13191;47.472;11.214;2023-07-31T09:09:29;18.00;99.90
25248;DHT22;13191;47.472;11.214;2023-07-31T09:11:55;18.20;99.90
25248;DHT22;13191;47.472;11.214;2023-07-31T09:14:21;18.30;99.90
25248;DHT22;13191;47.472;11.214;2023-07-31T09:16:54;18.50;99.90
25248;DHT22;13191;47.472;11.214;2023-07-31T09:19:34;18.50;99.90
25248;DHT22;13191;47.472;11.214;2023-07-31T09:22:03;18.50;99.90
25248;DHT22;13191;47.472;11.214;2023-07-31T09:24:30;18.60;99.90
25248;DHT22;13191;47.472;11.214;2023-07-31T09:26:58;18.60;99.90
25248;DHT22;13191;47.472;11.214;2023-07-31T09:29:24;18.70;99.90
25248;DHT22;13191;47.472;11.214;2023-07-31T09:31:52;18.80;99.90
25248;DHT22;13191;47.472;11.214;2023-07-31T09:34:18;18.80;99.90
25248;DHT22;13191;47.472;11.214;2023-07-31T09:36:45;19.00;99.90
25248;DHT22;13191;47.472;11.214;2023-07-31T09:39:12;19.10;99.90
25248;DHT22;13191;47.472;11.214;2023-07-31T09:41:44;19.30;99.90
25248;DHT22;13191;47.472;11.214;2023-07-31T09:44:10;19.30;99.90
25248;DHT22;13191;47.472;11.214;2023-07-31T09:46:36;19.40;99.90
25248;DHT22;13191;47.472;11.214;2023-07-31T09:49:13;19.50;99.90
25248;DHT22;13191;47.472;11.214;2023-07-31T09:51:41;19.50;99.90
25248;DHT22;13191;47.472;11.214;2023-07-31T09:54:15;19.60;99.90
25248;DHT22;13191;47.472;11.214;2023-07-31T09:56:45;19.60;99.90
25248;DHT22;13191;47.472;11.214;2023-07-31T09:59:13;19.50;99.90
25248;DHT22;13191;47.472;11.214;2023-07-31T10:01:41;19.40;99.90
25248;DHT22;13191;47.472;11.214;2023-07-31T10:04:08;19.40;99.90
25248;DHT22;13191;47.472;11.214;2023-07-31T10:06:35;19.50;99.90
25248;DHT22;13191;47.472;11.214;2023-07-31T10:09:03;19.50;99.90
25248;DHT22;13191;47.472;11.214;2023-07-31T10:11:53;19.60;99.90
25248;DHT22;13191;47.472;11.214;2023-07-31T10:14:21;19.70;99.90
25248;DHT22;13191;47.472;11.214;2023-07-31T10:16:49;19.80;99.90
25248;DHT22;13191;47.472;11.214;2023-07-31T10:19:16;19.90;99.90
25248;DHT22;13191;47.472;11.214;2023-07-31T10:21:43;20.00;99.90
25248;DHT22;13191;47.472;11.214;2023-07-31T10:24:09;20.10;99.90
25248;DHT22;13191;47.472;11.214;2023-07-31T10:26:35;20.20;99.90
25248;DHT22;13191;47.472;11.214;2023-07-31T10:29:04;20.30;99.90
25248;DHT22;13191;47.472;11.214;2023-07-31T10:31:31;20.50;99.90
25248;DHT22;13191;47.472;11.214;2023-07-31T10:33:58;20.50;99.90
25248;DHT22;13191;47.472;11.214;2023-07-31T10:38:51;20.70;99.90
25248;DHT22;13191;47.472;11.214;2023-07-31T10:56:04;21.10;99.90
25248;DHT22;13191;47.472;11.214;2023-07-31T10:58:31;21.00;99.90
25248;DHT22;13191;47.472;11.214;2023-07-31T11:00:59;21.00;99.90
25248;DHT22;13191;47.472;11.214;2023-07-31T11:03:27;21.10;99.90
25248;DHT22;13191;47.472;11.214;2023-07-31T11:06:05;21.20;99.90
25248;DHT22;13191;47.472;11.214;2023-07-31T11:08:32;21.00;99.90
25248;DHT22;13191;47.472;11.214;2023-07-31T11:13:27;21.00;99.90
25248;DHT22;13191;47.472;11.214;2023-07-31T11:15:53;21.00;99.90
25248;DHT22;13191;47.472;11.214;2023-07-31T11:18:28;21.10;99.90
25248;DHT22;13191;47.472;11.214;2023-07-31T11:20:54;21.20;99.90
25248;DHT22;13191;47.472;11.214;2023-07-31T11:23:21;21.30;99.90
25248;DHT22;13191;47.472;11.214;2023-07-31T11:25:46;21.40;99.90
25248;DHT22;13191;47.472;11.214;2023-07-31T11:28:14;21.60;99.90
25248;DHT22;13191;47.472;11.214;2023-07-31T11:30:41;21.70;99.90
25248;DHT22;13191;47.472;11.214;2023-07-31T11:33:08;21.80;99.90
25248;DHT22;13191;47.472;11.214;2023-07-31T11:35:45;21.70;99.90
25248;DHT22;13191;47.472;11.214;2023-07-31T11:38:32;21.70;99.90
25248;DHT22;13191;47.472;11.214;2023-07-31T11:43:25;22.00;99.90
25248;DHT22;13191;47.472;11.214;2023-07-31T11:45:54;22.20;99.90
25248;DHT22;13191;47.472;11.214;2023-07-31T11:48:25;22.30;99.90
25248;DHT22;13191;47.472;11.214;2023-07-31T11:50:53;22.30;99.90
25248;DHT22;13191;47.472;11.214;2023-07-31T11:53:36;22.40;99.90
25248;DHT22;13191;47.472;11.214;2023-07-31T11:56:04;22.60;99.90
25248;DHT22;13191;47.472;11.214;2023-07-31T11:58:31;22.70;99.90
25248;DHT22;13191;47.472;11.214;2023-07-31T12:00:59;22.90;99.90
25248;DHT22;13191;47.472;11.214;2023-07-31T12:03:26;22.90;99.90
25248;DHT22;13191;47.472;11.214;2023-07-31T12:05:53;23.10;99.90
25248;DHT22;13191;47.472;11.214;2023-07-31T12:08:21;23.20;99.90
25248;DHT22;13191;47.472;11.214;2023-07-31T12:10:50;23.30;99.90
25248;DHT22;13191;47.472;11.214;2023-07-31T12:13:24;23.40;99.90
25248;DHT22;13191;47.472;11.214;2023-07-31T12:15:57;23.40;99.90
25248;DHT22;13191;47.472;11.214;2023-07-31T12:18:26;23.30;99.90
25248;DHT22;13191;47.472;11.214;2023-07-31T12:20:56;23.30;99.90
25248;DHT22;13191;47.472;11.214;2023-07-31T12:23:25;23.20;99.90
25248;DHT22;13191;47.472;11.214;2023-07-31T12:28:30;23.10;99.90
25248;DHT22;13191;47.472;11.214;2023-07-31T12:31:00;23.20;99.90
25248;DHT22;13191;47.472;11.214;2023-07-31T12:33:31;23.40;99.90
25248;DHT22;13191;47.472;11.214;2023-07-31T12:35:59;23.60;99.90
25248;DHT22;13191;47.472;11.214;2023-07-31T12:38:25;23.70;99.90
25248;DHT22;13191;47.472;11.214;2023-07-31T12:40:51;23.80;99.90
25248;DHT22;13191;47.472;11.214;2023-07-31T12:43:16;23.90;99.90
25248;DHT22;13191;47.472;11.214;2023-07-31T12:45:42;24.10;99.90
25248;DHT22;13191;47.472;11.214;2023-07-31T12:48:08;24.30;99.90
25248;DHT22;13191;47.472;11.214;2023-07-31T12:50:33;24.40;99.90
25248;DHT22;13191;47.472;11.214;2023-07-31T12:53:02;24.50;99.90
25248;DHT22;13191;47.472;11.214;2023-07-31T12:55:28;24.50;99.90
25248;DHT22;13191;47.472;11.214;2023-07-31T12:57:55;24.70;99.90
25248;DHT22;13191;47.472;11.214;2023-07-31T13:00:24;24.60;99.90
25248;DHT22;13191;47.472;11.214;2023-07-31T13:02:51;24.60;99.90
25248;DHT22;13191;47.472;11.214;2023-07-31T13:05:17;24.70;99.90
25248;DHT22;13191;47.472;11.214;2023-07-31T13:07:45;24.80;99.90
25248;DHT22;13191;47.472;11.214;2023-07-31T13:10:10;24.60;99.90
25248;DHT22;13191;47.472;11.214;2023-07-31T13:12:42;24.70;99.90
25248;DHT22;13191;47.472;11.214;2023-07-31T13:15:08;24.70;99.90
25248;DHT22;13191;47.472;11.214;2023-07-31T13:17:34;24.50;99.90
25248;DHT22;13191;47.472;11.214;2023-07-31T13:19:59;24.30;99.90
25248;DHT22;13191;47.472;11.214;2023-07-31T13:22:25;24.30;99.90
25248;DHT22;13191;47.472;11.214;2023-07-31T13:24:51;24.00;99.90
25248;DHT22;13191;47.472;11.214;2023-07-31T13:27:17;23.70;99.90
25248;DHT22;13191;47.472;11.214;2023-07-31T13:29:45;23.70;99.90
25248;DHT22;13191;47.472;11.214;2023-07-31T13:32:11;23.60;99.90
25248;DHT22;13191;47.472;11.214;2023-07-31T13:34:36;23.60;99.90
25248;DHT22;13191;47.472;11.214;2023-07-31T13:37:02;23.60;99.90
25248;DHT22;13191;47.472;11.214;2023-07-31T13:39:28;23.60;99.90
25248;DHT22;13191;47.472;11.214;2023-07-31T13:41:53;23.60;99.90
25248;DHT22;13191;47.472;11.214;2023-07-31T13:44:19;23.70;99.90
25248;DHT22;13191;47.472;11.214;2023-07-31T13:46:45;23.90;99.90
25248;DHT22;13191;47.472;11.214;2023-07-31T13:49:10;23.90;99.90
25248;DHT22;13191;47.472;11.214;2023-07-31T13:51:36;24.00;99.90
25248;DHT22;13191;47.472;11.214;2023-07-31T13:54:03;24.00;99.90
25248;DHT22;13191;47.472;11.214;2023-07-31T13:56:29;24.20;99.90
25248;DHT22;13191;47.472;11.214;2023-07-31T13:58:54;24.40;99.90
25248;DHT22;13191;47.472;11.214;2023-07-31T14:01:20;24.50;99.90
25248;DHT22;13191;47.472;11.214;2023-07-31T14:03:46;24.60;99.90
25248;DHT22;13191;47.472;11.214;2023-07-31T14:06:11;24.70;99.90
25248;DHT22;13191;47.472;11.214;2023-07-31T14:08:37;24.80;99.90
25248;DHT22;13191;47.472;11.214;2023-07-31T14:11:03;24.80;99.90
25248;DHT22;13191;47.472;11.214;2023-07-31T14:13:28;24.90;99.90
25248;DHT22;13191;47.472;11.214;2023-07-31T14:15:54;25.00;99.90
25248;DHT22;13191;47.472;11.214;2023-07-31T14:18:20;25.10;99.90
25248;DHT22;13191;47.472;11.214;2023-07-31T14:20:45;25.20;99.90
25248;DHT22;13191;47.472;11.214;2023-07-31T14:23:11;25.30;99.90
25248;DHT22;13191;47.472;11.214;2023-07-31T14:25:36;25.30;99.90
25248;DHT22;13191;47.472;11.214;2023-07-31T14:28:02;25.20;99.90
25248;DHT22;13191;47.472;11.214;2023-07-31T14:30:28;25.20;99.90
25248;DHT22;13191;47.472;11.214;2023-07-31T14:32:53;25.30;99.90
25248;DHT22;13191;47.472;11.214;2023-07-31T14:35:19;25.40;99.90
25248;DHT22;13191;47.472;11.214;2023-07-31T14:37:45;25.40;99.90
25248;DHT22;13191;47.472;11.214;2023-07-31T14:40:12;25.50;99.90
25248;DHT22;13191;47.472;11.214;2023-07-31T14:42:39;25.70;99.90
25248;DHT22;13191;47.472;11.214;2023-07-31T14:45:06;25.80;99.90
25248;DHT22;13191;47.472;11.214;2023-07-31T14:47:32;25.80;99.90
25248;DHT22;13191;47.472;11.214;2023-07-31T14:49:59;25.90;99.90
25248;DHT22;13191;47.472;11.214;2023-07-31T14:52:25;25.90;99.90
25248;DHT22;13191;47.472;11.214;2023-07-31T14:54:51;26.00;99.90
25248;DHT22;13191;47.472;11.214;2023-07-31T14:57:16;26.10;99.90
25248;DHT22;13191;47.472;11.214;2023-07-31T14:59:42;26.20;99.90
25248;DHT22;13191;47.472;11.214;2023-07-31T15:02:11;26.40;99.90
25248;DHT22;13191;47.472;11.214;2023-07-31T15:04:37;26.50;99.90
25248;DHT22;13191;47.472;11.214;2023-07-31T15:07:03;26.60;99.90
25248;DHT22;13191;47.472;11.214;2023-07-31T15:09:29;26.70;99.90
25248;DHT22;13191;47.472;11.214;2023-07-31T15:11:56;26.70;99.90
25248;DHT22;13191;47.472;11.214;2023-07-31T15:14:22;26.70;99.90
25248;DHT22;13191;47.472;11.214;2023-07-31T15:16:47;26.80;99.90
25248;DHT22;13191;47.472;11.214;2023-07-31T15:19:14;27.00;99.90
25248;DHT22;13191;47.472;11.214;2023-07-31T15:21:40;27.20;99.90
25248;DHT22;13191;47.472;11.214;2023-07-31T15:24:05;27.30;99.90
25248;DHT22;13191;47.472;11.214;2023-07-31T15:26:31;27.50;99.90
25248;DHT22;13191;47.472;11.214;2023-07-31T15:29:01;27.70;99.90
25248;DHT22;13191;47.472;11.214;2023-07-31T15:31:28;27.90;99.90
25248;DHT22;13191;47.472;11.214;2023-07-31T15:33:54;28.00;99.90
25248;DHT22;13191;47.472;11.214;2023-07-31T15:36:19;28.10;99.90
25248;DHT22;13191;47.472;11.214;2023-07-31T15:38:45;28.30;99.90
25248;DHT22;13191;47.472;11.214;2023-07-31T15:41:11;28.10;99.90
25248;DHT22;13191;47.472;11.214;2023-07-31T15:43:37;28.00;99.90
25248;DHT22;13191;47.472;11.214;2023-07-31T15:46:02;28.10;99.90